sensor_id;sensor_type;location;lat;lon;timestamp;P1;durP1;ratioP1;P2;durP2;ratioP2
26965;SDS011;14522;52.068;4.414;2023-05-20T00:00:38;3.80;;;1.52;;
26965;SDS011;14522;52.068;4.414;2023-05-20T00:03:04;6.25;;;1.70;;
26965;SDS011;14522;52.068;4.414;2023-05-20T00:05:31;5.40;;;1.75;;
26965;SDS011;14522;52.068;4.414;2023-05-20T00:07:57;6.50;;;1.70;;
26965;SDS011;14522;52.068;4.414;2023-05-20T00:10:24;3.72;;;1.48;;
26965;SDS011;14522;52.068;4.414;2023-05-20T00:12:51;7.50;;;1.90;;
26965;SDS011;14522;52.068;4.414;2023-05-20T00:15:17;6.53;;;1.70;;
26965;SDS011;14522;52.068;4.414;2023-05-20T00:17:44;8.10;;;1.63;;
26965;SDS011;14522;52.068;4.414;2023-05-20T00:20:10;7.38;;;1.77;;
26965;SDS011;14522;52.068;4.414;2023-05-20T00:22:37;9.70;;;2.20;;
26965;SDS011;14522;52.068;4.414;2023-05-20T00:25:03;3.67;;;1.58;;
26965;SDS011;14522;52.068;4.414;2023-05-20T00:27:30;7.80;;;2.28;;
26965;SDS011;14522;52.068;4.414;2023-05-20T00:29:56;6.07;;;1.90;;
26965;SDS011;14522;52.068;4.414;2023-05-20T00:32:23;8.18;;;2.22;;
26965;SDS011;14522;52.068;4.414;2023-05-20T00:34:56;9.55;;;2.17;;
26965;SDS011;14522;52.068;4.414;2023-05-20T00:37:23;7.47;;;2.20;;
26965;SDS011;14522;52.068;4.414;2023-05-20T00:39:50;9.90;;;2.20;;
26965;SDS011;14522;52.068;4.414;2023-05-20T00:42:22;4.65;;;1.85;;
26965;SDS011;14522;52.068;4.414;2023-05-20T00:44:49;4.75;;;2.45;;
26965;SDS011;14522;52.068;4.414;2023-05-20T00:47:19;6.93;;;1.95;;
26965;SDS011;14522;52.068;4.414;2023-05-20T00:49:48;4.03;;;1.27;;
26965;SDS011;14522;52.068;4.414;2023-05-20T00:52:16;5.70;;;2.10;;
26965;SDS011;14522;52.068;4.414;2023-05-20T00:54:43;5.95;;;2.03;;
26965;SDS011;14522;52.068;4.414;2023-05-20T00:57:10;5.95;;;2.33;;
26965;SDS011;14522;52.068;4.414;2023-05-20T00:59:36;9.10;;;2.78;;
26965;SDS011;14522;52.068;4.414;2023-05-20T01:02:03;3.75;;;1.55;;
26965;SDS011;14522;52.068;4.414;2023-05-20T01:04:30;6.43;;;2.10;;
26965;SDS011;14522;52.068;4.414;2023-05-20T01:06:58;8.75;;;2.83;;
26965;SDS011;14522;52.068;4.414;2023-05-20T01:09:25;7.72;;;2.47;;
26965;SDS011;14522;52.068;4.414;2023-05-20T01:11:54;7.65;;;2.55;;
26965;SDS011;14522;52.068;4.414;2023-05-20T01:14:21;6.18;;;2.58;;
26965;SDS011;14522;52.068;4.414;2023-05-20T01:16:49;6.65;;;1.88;;
26965;SDS011;14522;52.068;4.414;2023-05-20T01:19:30;6.68;;;2.85;;
26965;SDS011;14522;52.068;4.414;2023-05-20T01:22:04;3.63;;;1.90;;
26965;SDS011;14522;52.068;4.414;2023-05-20T01:24:32;7.20;;;2.58;;
26965;SDS011;14522;52.068;4.414;2023-05-20T01:26:58;6.32;;;1.85;;
26965;SDS011;14522;52.068;4.414;2023-05-20T01:29:25;7.13;;;2.55;;
26965;SDS011;14522;52.068;4.414;2023-05-20T01:31:52;7.40;;;2.22;;
26965;SDS011;14522;52.068;4.414;2023-05-20T01:34:18;7.32;;;2.50;;
26965;SDS011;14522;52.068;4.414;2023-05-20T01:36:45;2.88;;;1.60;;
26965;SDS011;14522;52.068;4.414;2023-05-20T01:39:12;6.38;;;1.90;;
26965;SDS011;14522;52.068;4.414;2023-05-20T01:41:39;10.82;;;2.35;;
26965;SDS011;14522;52.068;4.414;2023-05-20T01:44:06;5.25;;;1.95;;
26965;SDS011;14522;52.068;4.414;2023-05-20T01:46:32;5.95;;;1.95;;
26965;SDS011;14522;52.068;4.414;2023-05-20T01:48:59;7.80;;;2.60;;
26965;SDS011;14522;52.068;4.414;2023-05-20T01:51:26;5.80;;;2.55;;
26965;SDS011;14522;52.068;4.414;2023-05-20T01:53:53;7.40;;;2.20;;
26965;SDS011;14522;52.068;4.414;2023-05-20T01:56:19;6.40;;;2.47;;
26965;SDS011;14522;52.068;4.414;2023-05-20T01:58:47;8.73;;;2.47;;
26965;SDS011;14522;52.068;4.414;2023-05-20T02:01:13;8.45;;;2.70;;
26965;SDS011;14522;52.068;4.414;2023-05-20T02:03:40;6.63;;;2.17;;
26965;SDS011;14522;52.068;4.414;2023-05-20T02:06:06;7.25;;;2.42;;
26965;SDS011;14522;52.068;4.414;2023-05-20T02:08:33;6.50;;;2.15;;
26965;SDS011;14522;52.068;4.414;2023-05-20T02:10:59;6.75;;;2.55;;
26965;SDS011;14522;52.068;4.414;2023-05-20T02:13:25;8.43;;;2.60;;
26965;SDS011;14522;52.068;4.414;2023-05-20T02:15:52;8.98;;;3.58;;
26965;SDS011;14522;52.068;4.414;2023-05-20T02:18:18;8.63;;;2.20;;
26965;SDS011;14522;52.068;4.414;2023-05-20T02:20:45;6.53;;;2.60;;
26965;SDS011;14522;52.068;4.414;2023-05-20T02:23:11;7.43;;;2.38;;
26965;SDS011;14522;52.068;4.414;2023-05-20T02:25:39;7.95;;;2.72;;
26965;SDS011;14522;52.068;4.414;2023-05-20T02:28:05;6.90;;;2.67;;
26965;SDS011;14522;52.068;4.414;2023-05-20T02:30:36;7.03;;;2.03;;
26965;SDS011;14522;52.068;4.414;2023-05-20T02:33:03;6.15;;;2.05;;
26965;SDS011;14522;52.068;4.414;2023-05-20T02:35:29;8.35;;;3.08;;
26965;SDS011;14522;52.068;4.414;2023-05-20T02:37:56;8.15;;;2.08;;
26965;SDS011;14522;52.068;4.414;2023-05-20T02:40:22;4.75;;;1.63;;
26965;SDS011;14522;52.068;4.414;2023-05-20T02:42:49;5.80;;;2.28;;
26965;SDS011;14522;52.068;4.414;2023-05-20T02:45:15;8.43;;;2.80;;
26965;SDS011;14522;52.068;4.414;2023-05-20T02:47:42;8.38;;;2.75;;
26965;SDS011;14522;52.068;4.414;2023-05-20T02:50:08;6.82;;;2.50;;
26965;SDS011;14522;52.068;4.414;2023-05-20T02:52:35;8.57;;;2.33;;
26965;SDS011;14522;52.068;4.414;2023-05-20T02:55:01;4.10;;;2.05;;
26965;SDS011;14522;52.068;4.414;2023-05-20T02:57:28;10.02;;;2.58;;
26965;SDS011;14522;52.068;4.414;2023-05-20T02:59:54;8.10;;;2.58;;
26965;SDS011;14522;52.068;4.414;2023-05-20T03:02:21;8.02;;;2.22;;
26965;SDS011;14522;52.068;4.414;2023-05-20T03:04:48;8.57;;;2.40;;
26965;SDS011;14522;52.068;4.414;2023-05-20T03:07:15;5.72;;;2.67;;
26965;SDS011;14522;52.068;4.414;2023-05-20T03:09:45;6.47;;;2.22;;
26965;SDS011;14522;52.068;4.414;2023-05-20T03:12:11;4.63;;;2.30;;
26965;SDS011;14522;52.068;4.414;2023-05-20T03:14:37;10.35;;;2.90;;
26965;SDS011;14522;52.068;4.414;2023-05-20T03:17:04;9.27;;;3.10;;
26965;SDS011;14522;52.068;4.414;2023-05-20T03:19:30;6.30;;;2.70;;
26965;SDS011;14522;52.068;4.414;2023-05-20T03:21:57;10.02;;;3.63;;
26965;SDS011;14522;52.068;4.414;2023-05-20T03:24:23;7.18;;;3.30;;
26965;SDS011;14522;52.068;4.414;2023-05-20T03:26:49;4.28;;;2.30;;
26965;SDS011;14522;52.068;4.414;2023-05-20T03:29:16;9.60;;;2.90;;
26965;SDS011;14522;52.068;4.414;2023-05-20T03:31:43;5.90;;;2.85;;
26965;SDS011;14522;52.068;4.414;2023-05-20T03:34:10;7.55;;;2.72;;
26965;SDS011;14522;52.068;4.414;2023-05-20T03:36:36;4.82;;;2.38;;
26965;SDS011;14522;52.068;4.414;2023-05-20T03:39:02;7.97;;;2.38;;
26965;SDS011;14522;52.068;4.414;2023-05-20T03:41:29;11.10;;;3.17;;
26965;SDS011;14522;52.068;4.414;2023-05-20T03:43:56;6.32;;;3.00;;
26965;SDS011;14522;52.068;4.414;2023-05-20T03:46:22;6.38;;;2.78;;
26965;SDS011;14522;52.068;4.414;2023-05-20T03:48:49;10.57;;;3.15;;
26965;SDS011;14522;52.068;4.414;2023-05-20T03:51:15;7.20;;;2.90;;
26965;SDS011;14522;52.068;4.414;2023-05-20T03:53:41;7.45;;;2.85;;
26965;SDS011;14522;52.068;4.414;2023-05-20T03:56:08;8.23;;;2.22;;
26965;SDS011;14522;52.068;4.414;2023-05-20T03:58:34;10.85;;;2.88;;
26965;SDS011;14522;52.068;4.414;2023-05-20T04:01:03;7.50;;;3.03;;
26965;SDS011;14522;52.068;4.414;2023-05-20T04:03:30;5.07;;;2.92;;
26965;SDS011;14522;52.068;4.414;2023-05-20T04:05:57;5.60;;;2.47;;
26965;SDS011;14522;52.068;4.414;2023-05-20T04:08:23;8.15;;;2.97;;
26965;SDS011;14522;52.068;4.414;2023-05-20T04:10:54;8.20;;;3.10;;
26965;SDS011;14522;52.068;4.414;2023-05-20T04:13:20;13.02;;;3.88;;
26965;SDS011;14522;52.068;4.414;2023-05-20T04:15:47;8.25;;;2.90;;
26965;SDS011;14522;52.068;4.414;2023-05-20T04:18:13;10.32;;;3.30;;
26965;SDS011;14522;52.068;4.414;2023-05-20T04:20:40;6.78;;;3.13;;
26965;SDS011;14522;52.068;4.414;2023-05-20T04:23:06;6.60;;;2.92;;
26965;SDS011;14522;52.068;4.414;2023-05-20T04:25:33;10.18;;;3.33;;
26965;SDS011;14522;52.068;4.414;2023-05-20T04:28:01;7.57;;;3.25;;
26965;SDS011;14522;52.068;4.414;2023-05-20T04:30:28;7.05;;;3.17;;
26965;SDS011;14522;52.068;4.414;2023-05-20T04:32:55;8.15;;;3.53;;
26965;SDS011;14522;52.068;4.414;2023-05-20T04:35:21;12.95;;;3.95;;
26965;SDS011;14522;52.068;4.414;2023-05-20T04:37:51;5.55;;;2.42;;
26965;SDS011;14522;52.068;4.414;2023-05-20T04:40:19;10.52;;;3.03;;
26965;SDS011;14522;52.068;4.414;2023-05-20T04:42:46;10.65;;;3.13;;
26965;SDS011;14522;52.068;4.414;2023-05-20T04:45:12;5.40;;;2.53;;
26965;SDS011;14522;52.068;4.414;2023-05-20T04:47:39;6.65;;;2.60;;
26965;SDS011;14522;52.068;4.414;2023-05-20T04:50:07;11.35;;;2.92;;
26965;SDS011;14522;52.068;4.414;2023-05-20T04:52:37;7.63;;;2.95;;
26965;SDS011;14522;52.068;4.414;2023-05-20T04:55:05;9.52;;;2.72;;
26965;SDS011;14522;52.068;4.414;2023-05-20T04:57:31;7.57;;;2.15;;
26965;SDS011;14522;52.068;4.414;2023-05-20T04:59:59;6.90;;;3.08;;
26965;SDS011;14522;52.068;4.414;2023-05-20T05:02:26;7.35;;;3.15;;
26965;SDS011;14522;52.068;4.414;2023-05-20T05:04:52;6.97;;;2.80;;
26965;SDS011;14522;52.068;4.414;2023-05-20T05:07:19;8.13;;;2.63;;
26965;SDS011;14522;52.068;4.414;2023-05-20T05:09:46;10.00;;;2.65;;
26965;SDS011;14522;52.068;4.414;2023-05-20T05:12:12;11.55;;;3.67;;
26965;SDS011;14522;52.068;4.414;2023-05-20T05:14:38;6.22;;;2.88;;
26965;SDS011;14522;52.068;4.414;2023-05-20T05:17:05;4.68;;;2.35;;
26965;SDS011;14522;52.068;4.414;2023-05-20T05:19:31;7.03;;;3.20;;
26965;SDS011;14522;52.068;4.414;2023-05-20T05:21:57;9.07;;;2.50;;
26965;SDS011;14522;52.068;4.414;2023-05-20T05:24:24;10.15;;;3.65;;
26965;SDS011;14522;52.068;4.414;2023-05-20T05:26:54;11.55;;;3.03;;
26965;SDS011;14522;52.068;4.414;2023-05-20T05:29:20;9.48;;;3.47;;
26965;SDS011;14522;52.068;4.414;2023-05-20T05:31:47;13.95;;;3.40;;
26965;SDS011;14522;52.068;4.414;2023-05-20T05:34:13;8.20;;;3.33;;
26965;SDS011;14522;52.068;4.414;2023-05-20T05:36:39;11.40;;;3.25;;
26965;SDS011;14522;52.068;4.414;2023-05-20T05:39:06;7.53;;;3.42;;
26965;SDS011;14522;52.068;4.414;2023-05-20T05:41:33;9.13;;;3.67;;
26965;SDS011;14522;52.068;4.414;2023-05-20T05:43:59;8.88;;;3.33;;
26965;SDS011;14522;52.068;4.414;2023-05-20T05:46:25;13.57;;;3.72;;
26965;SDS011;14522;52.068;4.414;2023-05-20T05:48:52;9.88;;;3.25;;
26965;SDS011;14522;52.068;4.414;2023-05-20T05:51:19;10.20;;;3.55;;
26965;SDS011;14522;52.068;4.414;2023-05-20T05:53:45;13.73;;;3.60;;
26965;SDS011;14522;52.068;4.414;2023-05-20T05:56:11;6.85;;;2.78;;
26965;SDS011;14522;52.068;4.414;2023-05-20T05:58:38;9.13;;;3.63;;
26965;SDS011;14522;52.068;4.414;2023-05-20T06:01:04;8.93;;;3.50;;
26965;SDS011;14522;52.068;4.414;2023-05-20T06:03:31;5.93;;;2.45;;
26965;SDS011;14522;52.068;4.414;2023-05-20T06:05:57;10.65;;;3.42;;
26965;SDS011;14522;52.068;4.414;2023-05-20T06:08:24;8.65;;;3.53;;
26965;SDS011;14522;52.068;4.414;2023-05-20T06:10:51;5.63;;;3.20;;
26965;SDS011;14522;52.068;4.414;2023-05-20T06:13:18;7.18;;;3.03;;
26965;SDS011;14522;52.068;4.414;2023-05-20T06:15:45;7.72;;;3.15;;
26965;SDS011;14522;52.068;4.414;2023-05-20T06:18:11;7.22;;;3.17;;
26965;SDS011;14522;52.068;4.414;2023-05-20T06:20:38;8.55;;;2.97;;
26965;SDS011;14522;52.068;4.414;2023-05-20T06:23:04;10.80;;;4.10;;
26965;SDS011;14522;52.068;4.414;2023-05-20T06:25:31;8.75;;;3.63;;
26965;SDS011;14522;52.068;4.414;2023-05-20T06:27:57;7.78;;;3.25;;
26965;SDS011;14522;52.068;4.414;2023-05-20T06:30:24;10.82;;;4.38;;
26965;SDS011;14522;52.068;4.414;2023-05-20T06:32:50;10.63;;;3.55;;
26965;SDS011;14522;52.068;4.414;2023-05-20T06:35:17;8.07;;;3.33;;
26965;SDS011;14522;52.068;4.414;2023-05-20T06:37:43;8.90;;;3.38;;
26965;SDS011;14522;52.068;4.414;2023-05-20T06:40:11;7.70;;;2.95;;
26965;SDS011;14522;52.068;4.414;2023-05-20T06:42:37;11.00;;;3.97;;
26965;SDS011;14522;52.068;4.414;2023-05-20T06:45:04;7.82;;;3.78;;
26965;SDS011;14522;52.068;4.414;2023-05-20T06:47:30;5.53;;;3.42;;
26965;SDS011;14522;52.068;4.414;2023-05-20T06:49:57;6.75;;;2.60;;
26965;SDS011;14522;52.068;4.414;2023-05-20T06:52:23;9.23;;;3.10;;
26965;SDS011;14522;52.068;4.414;2023-05-20T06:54:50;8.02;;;3.20;;
26965;SDS011;14522;52.068;4.414;2023-05-20T06:57:16;11.35;;;3.42;;
26965;SDS011;14522;52.068;4.414;2023-05-20T06:59:42;10.27;;;2.92;;
26965;SDS011;14522;52.068;4.414;2023-05-20T07:02:09;7.75;;;2.55;;
26965;SDS011;14522;52.068;4.414;2023-05-20T07:04:36;9.45;;;2.70;;
26965;SDS011;14522;52.068;4.414;2023-05-20T07:07:02;9.15;;;2.90;;
26965;SDS011;14522;52.068;4.414;2023-05-20T07:09:29;7.72;;;2.70;;
26965;SDS011;14522;52.068;4.414;2023-05-20T07:11:55;8.52;;;2.92;;
26965;SDS011;14522;52.068;4.414;2023-05-20T07:14:22;6.50;;;2.33;;
26965;SDS011;14522;52.068;4.414;2023-05-20T07:16:48;8.43;;;2.63;;
26965;SDS011;14522;52.068;4.414;2023-05-20T07:19:15;4.32;;;2.20;;
26965;SDS011;14522;52.068;4.414;2023-05-20T07:21:41;4.40;;;1.98;;
26965;SDS011;14522;52.068;4.414;2023-05-20T07:24:08;7.97;;;2.17;;
26965;SDS011;14522;52.068;4.414;2023-05-20T07:26:34;3.60;;;2.08;;
26965;SDS011;14522;52.068;4.414;2023-05-20T07:29:02;7.65;;;2.58;;
26965;SDS011;14522;52.068;4.414;2023-05-20T07:31:29;5.32;;;2.22;;
26965;SDS011;14522;52.068;4.414;2023-05-20T07:33:56;5.88;;;2.63;;
26965;SDS011;14522;52.068;4.414;2023-05-20T07:36:22;6.90;;;2.03;;
26965;SDS011;14522;52.068;4.414;2023-05-20T07:38:49;6.85;;;2.08;;
26965;SDS011;14522;52.068;4.414;2023-05-20T07:41:27;6.72;;;2.17;;
26965;SDS011;14522;52.068;4.414;2023-05-20T07:43:53;7.53;;;2.03;;
26965;SDS011;14522;52.068;4.414;2023-05-20T07:46:20;4.45;;;1.98;;
26965;SDS011;14522;52.068;4.414;2023-05-20T07:48:46;4.32;;;2.03;;
26965;SDS011;14522;52.068;4.414;2023-05-20T07:51:13;3.85;;;1.83;;
26965;SDS011;14522;52.068;4.414;2023-05-20T07:53:39;5.05;;;2.13;;
26965;SDS011;14522;52.068;4.414;2023-05-20T07:56:06;7.95;;;2.72;;
26965;SDS011;14522;52.068;4.414;2023-05-20T07:58:32;9.85;;;2.08;;
26965;SDS011;14522;52.068;4.414;2023-05-20T08:00:58;5.45;;;2.00;;
26965;SDS011;14522;52.068;4.414;2023-05-20T08:03:25;4.22;;;2.20;;
26965;SDS011;14522;52.068;4.414;2023-05-20T08:05:52;5.97;;;2.28;;
26965;SDS011;14522;52.068;4.414;2023-05-20T08:08:18;8.90;;;2.45;;
26965;SDS011;14522;52.068;4.414;2023-05-20T08:10:45;4.57;;;2.55;;
26965;SDS011;14522;52.068;4.414;2023-05-20T08:13:11;6.05;;;2.10;;
26965;SDS011;14522;52.068;4.414;2023-05-20T08:15:37;7.95;;;2.20;;
26965;SDS011;14522;52.068;4.414;2023-05-20T08:18:04;8.18;;;1.95;;
26965;SDS011;14522;52.068;4.414;2023-05-20T08:20:31;5.00;;;2.45;;
26965;SDS011;14522;52.068;4.414;2023-05-20T08:22:57;4.13;;;2.08;;
26965;SDS011;14522;52.068;4.414;2023-05-20T08:25:24;5.40;;;2.53;;
26965;SDS011;14522;52.068;4.414;2023-05-20T08:27:50;7.28;;;2.13;;
26965;SDS011;14522;52.068;4.414;2023-05-20T08:30:16;4.57;;;2.10;;
26965;SDS011;14522;52.068;4.414;2023-05-20T08:32:43;7.07;;;2.45;;
26965;SDS011;14522;52.068;4.414;2023-05-20T08:35:09;6.50;;;2.30;;
26965;SDS011;14522;52.068;4.414;2023-05-20T08:37:36;5.70;;;1.75;;
26965;SDS011;14522;52.068;4.414;2023-05-20T08:40:02;5.82;;;2.15;;
26965;SDS011;14522;52.068;4.414;2023-05-20T08:42:30;6.28;;;1.80;;
26965;SDS011;14522;52.068;4.414;2023-05-20T08:44:57;3.28;;;2.03;;
26965;SDS011;14522;52.068;4.414;2023-05-20T08:47:24;3.90;;;1.95;;
26965;SDS011;14522;52.068;4.414;2023-05-20T08:49:51;4.45;;;2.20;;
26965;SDS011;14522;52.068;4.414;2023-05-20T08:52:19;6.22;;;2.17;;
26965;SDS011;14522;52.068;4.414;2023-05-20T08:54:47;5.22;;;1.58;;
26965;SDS011;14522;52.068;4.414;2023-05-20T08:57:14;5.22;;;1.30;;
26965;SDS011;14522;52.068;4.414;2023-05-20T08:59:45;3.05;;;1.42;;
26965;SDS011;14522;52.068;4.414;2023-05-20T09:02:12;4.03;;;1.70;;
26965;SDS011;14522;52.068;4.414;2023-05-20T09:04:39;5.05;;;1.50;;
26965;SDS011;14522;52.068;4.414;2023-05-20T09:07:05;5.00;;;1.67;;
26965;SDS011;14522;52.068;4.414;2023-05-20T09:09:32;3.15;;;1.52;;
26965;SDS011;14522;52.068;4.414;2023-05-20T09:11:59;4.13;;;1.67;;
26965;SDS011;14522;52.068;4.414;2023-05-20T09:14:26;5.45;;;1.70;;
26965;SDS011;14522;52.068;4.414;2023-05-20T09:16:53;3.20;;;1.65;;
26965;SDS011;14522;52.068;4.414;2023-05-20T09:19:23;3.38;;;1.20;;
26965;SDS011;14522;52.068;4.414;2023-05-20T09:21:51;7.32;;;1.52;;
26965;SDS011;14522;52.068;4.414;2023-05-20T09:24:24;3.92;;;1.58;;
26965;SDS011;14522;52.068;4.414;2023-05-20T09:26:51;4.93;;;1.63;;
26965;SDS011;14522;52.068;4.414;2023-05-20T09:29:17;4.93;;;1.50;;
26965;SDS011;14522;52.068;4.414;2023-05-20T09:31:47;3.03;;;1.35;;
26965;SDS011;14522;52.068;4.414;2023-05-20T09:34:14;3.55;;;1.60;;
26965;SDS011;14522;52.068;4.414;2023-05-20T09:36:41;4.03;;;1.65;;
26965;SDS011;14522;52.068;4.414;2023-05-20T09:39:08;5.50;;;1.30;;
26965;SDS011;14522;52.068;4.414;2023-05-20T09:41:38;7.32;;;1.70;;
26965;SDS011;14522;52.068;4.414;2023-05-20T09:44:04;5.30;;;1.17;;
26965;SDS011;14522;52.068;4.414;2023-05-20T09:46:34;2.08;;;1.38;;
26965;SDS011;14522;52.068;4.414;2023-05-20T09:49:01;4.68;;;1.83;;
26965;SDS011;14522;52.068;4.414;2023-05-20T09:51:28;4.88;;;1.90;;
26965;SDS011;14522;52.068;4.414;2023-05-20T09:53:55;3.75;;;1.45;;
26965;SDS011;14522;52.068;4.414;2023-05-20T09:56:22;7.18;;;1.60;;
26965;SDS011;14522;52.068;4.414;2023-05-20T09:58:49;3.38;;;1.88;;
26965;SDS011;14522;52.068;4.414;2023-05-20T10:01:16;3.42;;;1.70;;
26965;SDS011;14522;52.068;4.414;2023-05-20T10:03:42;5.15;;;1.75;;
26965;SDS011;14522;52.068;4.414;2023-05-20T10:16:45;3.17;;;1.23;;
26965;SDS011;14522;52.068;4.414;2023-05-20T10:21:33;2.65;;;1.50;;
26965;SDS011;14522;52.068;4.414;2023-05-20T10:24:06;3.30;;;1.23;;
26965;SDS011;14522;52.068;4.414;2023-05-20T10:26:37;3.55;;;1.60;;
26965;SDS011;14522;52.068;4.414;2023-05-20T10:29:18;5.75;;;1.20;;
26965;SDS011;14522;52.068;4.414;2023-05-20T10:31:49;5.22;;;1.35;;
26965;SDS011;14522;52.068;4.414;2023-05-20T10:34:18;5.30;;;1.30;;
26965;SDS011;14522;52.068;4.414;2023-05-20T10:36:45;2.33;;;1.13;;
26965;SDS011;14522;52.068;4.414;2023-05-20T10:39:13;1.63;;;0.90;;
26965;SDS011;14522;52.068;4.414;2023-05-20T10:41:41;3.40;;;1.42;;
26965;SDS011;14522;52.068;4.414;2023-05-20T10:44:08;3.20;;;1.10;;
26965;SDS011;14522;52.068;4.414;2023-05-20T10:46:34;4.28;;;1.40;;
26965;SDS011;14522;52.068;4.414;2023-05-20T10:49:21;2.28;;;1.10;;
26965;SDS011;14522;52.068;4.414;2023-05-20T10:51:52;6.13;;;1.52;;
26965;SDS011;14522;52.068;4.414;2023-05-20T10:54:19;5.65;;;1.20;;
26965;SDS011;14522;52.068;4.414;2023-05-20T10:56:50;3.00;;;1.15;;
26965;SDS011;14522;52.068;4.414;2023-05-20T10:59:17;4.57;;;1.10;;
26965;SDS011;14522;52.068;4.414;2023-05-20T11:01:44;4.20;;;1.40;;
26965;SDS011;14522;52.068;4.414;2023-05-20T11:04:12;4.10;;;1.05;;
26965;SDS011;14522;52.068;4.414;2023-05-20T11:06:48;2.80;;;1.05;;
26965;SDS011;14522;52.068;4.414;2023-05-20T11:09:15;4.22;;;1.20;;
26965;SDS011;14522;52.068;4.414;2023-05-20T11:11:41;2.42;;;0.98;;
26965;SDS011;14522;52.068;4.414;2023-05-20T11:14:08;3.63;;;1.55;;
26965;SDS011;14522;52.068;4.414;2023-05-20T11:16:38;2.83;;;1.20;;
26965;SDS011;14522;52.068;4.414;2023-05-20T11:19:08;2.45;;;1.10;;
26965;SDS011;14522;52.068;4.414;2023-05-20T11:21:42;3.47;;;1.05;;
26965;SDS011;14522;52.068;4.414;2023-05-20T11:24:09;4.22;;;1.63;;
26965;SDS011;14522;52.068;4.414;2023-05-20T11:26:36;2.67;;;1.42;;
26965;SDS011;14522;52.068;4.414;2023-05-20T11:29:02;5.60;;;1.40;;
26965;SDS011;14522;52.068;4.414;2023-05-20T11:31:30;2.90;;;1.50;;
26965;SDS011;14522;52.068;4.414;2023-05-20T11:34:00;4.35;;;1.63;;
26965;SDS011;14522;52.068;4.414;2023-05-20T11:36:29;3.92;;;1.17;;
26965;SDS011;14522;52.068;4.414;2023-05-20T11:38:56;2.63;;;1.48;;
26965;SDS011;14522;52.068;4.414;2023-05-20T11:41:23;4.65;;;1.60;;
26965;SDS011;14522;52.068;4.414;2023-05-20T11:43:57;3.80;;;1.02;;
26965;SDS011;14522;52.068;4.414;2023-05-20T11:46:24;2.70;;;1.05;;
26965;SDS011;14522;52.068;4.414;2023-05-20T11:48:54;3.63;;;1.48;;
26965;SDS011;14522;52.068;4.414;2023-05-20T11:51:27;2.97;;;1.60;;
26965;SDS011;14522;52.068;4.414;2023-05-20T11:54:00;4.82;;;1.60;;
26965;SDS011;14522;52.068;4.414;2023-05-20T11:56:28;3.88;;;1.25;;
26965;SDS011;14522;52.068;4.414;2023-05-20T11:58:56;2.42;;;1.55;;
26965;SDS011;14522;52.068;4.414;2023-05-20T12:01:22;5.78;;;1.70;;
26965;SDS011;14522;52.068;4.414;2023-05-20T12:03:49;3.28;;;1.50;;
26965;SDS011;14522;52.068;4.414;2023-05-20T12:06:17;4.20;;;1.83;;
26965;SDS011;14522;52.068;4.414;2023-05-20T12:08:44;5.95;;;1.60;;
26965;SDS011;14522;52.068;4.414;2023-05-20T12:11:11;7.85;;;1.25;;
26965;SDS011;14522;52.068;4.414;2023-05-20T12:13:38;3.20;;;1.35;;
26965;SDS011;14522;52.068;4.414;2023-05-20T12:16:05;4.50;;;1.48;;
26965;SDS011;14522;52.068;4.414;2023-05-20T12:18:32;3.60;;;1.17;;
26965;SDS011;14522;52.068;4.414;2023-05-20T12:20:58;4.05;;;1.45;;
26965;SDS011;14522;52.068;4.414;2023-05-20T12:23:25;6.10;;;1.52;;
26965;SDS011;14522;52.068;4.414;2023-05-20T12:25:51;5.75;;;1.48;;
26965;SDS011;14522;52.068;4.414;2023-05-20T12:28:18;2.92;;;1.48;;
26965;SDS011;14522;52.068;4.414;2023-05-20T12:30:44;10.18;;;2.13;;
26965;SDS011;14522;52.068;4.414;2023-05-20T12:33:11;4.95;;;1.75;;
26965;SDS011;14522;52.068;4.414;2023-05-20T12:35:39;2.88;;;1.45;;
26965;SDS011;14522;52.068;4.414;2023-05-20T12:38:06;4.32;;;1.42;;
26965;SDS011;14522;52.068;4.414;2023-05-20T12:40:33;2.42;;;1.35;;
26965;SDS011;14522;52.068;4.414;2023-05-20T12:43:00;4.97;;;1.20;;
26965;SDS011;14522;52.068;4.414;2023-05-20T12:45:27;5.38;;;1.48;;
26965;SDS011;14522;52.068;4.414;2023-05-20T12:47:54;7.32;;;1.52;;
26965;SDS011;14522;52.068;4.414;2023-05-20T12:50:22;5.65;;;1.40;;
26965;SDS011;14522;52.068;4.414;2023-05-20T12:52:49;9.13;;;1.70;;
26965;SDS011;14522;52.068;4.414;2023-05-20T12:55:15;4.93;;;1.45;;
26965;SDS011;14522;52.068;4.414;2023-05-20T12:57:42;6.35;;;1.30;;
26965;SDS011;14522;52.068;4.414;2023-05-20T13:00:09;4.28;;;1.65;;
26965;SDS011;14522;52.068;4.414;2023-05-20T13:02:36;4.20;;;1.40;;
26965;SDS011;14522;52.068;4.414;2023-05-20T13:05:05;4.97;;;1.50;;
26965;SDS011;14522;52.068;4.414;2023-05-20T13:07:32;2.10;;;1.35;;
26965;SDS011;14522;52.068;4.414;2023-05-20T13:09:58;5.03;;;1.55;;
26965;SDS011;14522;52.068;4.414;2023-05-20T13:12:25;3.03;;;1.30;;
26965;SDS011;14522;52.068;4.414;2023-05-20T13:14:51;3.42;;;1.27;;
26965;SDS011;14522;52.068;4.414;2023-05-20T13:17:18;2.88;;;1.33;;
26965;SDS011;14522;52.068;4.414;2023-05-20T13:19:45;4.13;;;1.23;;
26965;SDS011;14522;52.068;4.414;2023-05-20T13:22:11;4.07;;;1.67;;
26965;SDS011;14522;52.068;4.414;2023-05-20T13:24:37;6.60;;;1.23;;
26965;SDS011;14522;52.068;4.414;2023-05-20T13:27:04;6.18;;;1.50;;
26965;SDS011;14522;52.068;4.414;2023-05-20T13:29:31;5.70;;;1.58;;
26965;SDS011;14522;52.068;4.414;2023-05-20T13:31:57;2.13;;;1.02;;
26965;SDS011;14522;52.068;4.414;2023-05-20T13:34:27;5.57;;;1.75;;
26965;SDS011;14522;52.068;4.414;2023-05-20T13:36:53;4.88;;;1.45;;
26965;SDS011;14522;52.068;4.414;2023-05-20T13:39:20;10.25;;;1.63;;
26965;SDS011;14522;52.068;4.414;2023-05-20T13:41:46;3.17;;;1.33;;
26965;SDS011;14522;52.068;4.414;2023-05-20T13:44:13;2.50;;;1.27;;
26965;SDS011;14522;52.068;4.414;2023-05-20T13:46:39;3.85;;;1.10;;
26965;SDS011;14522;52.068;4.414;2023-05-20T13:49:06;4.05;;;2.00;;
26965;SDS011;14522;52.068;4.414;2023-05-20T13:51:32;2.70;;;1.30;;
26965;SDS011;14522;52.068;4.414;2023-05-20T13:53:59;5.28;;;1.33;;
26965;SDS011;14522;52.068;4.414;2023-05-20T13:56:26;2.10;;;1.20;;
26965;SDS011;14522;52.068;4.414;2023-05-20T13:58:53;2.20;;;1.23;;
26965;SDS011;14522;52.068;4.414;2023-05-20T14:01:19;5.22;;;1.50;;
26965;SDS011;14522;52.068;4.414;2023-05-20T14:03:46;4.45;;;1.20;;
26965;SDS011;14522;52.068;4.414;2023-05-20T14:08:58;5.78;;;1.40;;
26965;SDS011;14522;52.068;4.414;2023-05-20T14:11:24;3.88;;;1.20;;
26965;SDS011;14522;52.068;4.414;2023-05-20T14:13:51;3.10;;;1.00;;
26965;SDS011;14522;52.068;4.414;2023-05-20T14:16:17;3.42;;;1.40;;
26965;SDS011;14522;52.068;4.414;2023-05-20T14:18:44;2.53;;;1.05;;
26965;SDS011;14522;52.068;4.414;2023-05-20T14:21:10;4.28;;;1.40;;
26965;SDS011;14522;52.068;4.414;2023-05-20T14:23:37;2.20;;;1.40;;
26965;SDS011;14522;52.068;4.414;2023-05-20T14:26:06;2.55;;;1.15;;
26965;SDS011;14522;52.068;4.414;2023-05-20T14:28:32;7.40;;;1.17;;
26965;SDS011;14522;52.068;4.414;2023-05-20T14:30:59;3.78;;;1.38;;
26965;SDS011;14522;52.068;4.414;2023-05-20T14:33:25;3.10;;;1.27;;
26965;SDS011;14522;52.068;4.414;2023-05-20T14:35:51;4.13;;;1.13;;
26965;SDS011;14522;52.068;4.414;2023-05-20T14:38:18;4.35;;;1.35;;
26965;SDS011;14522;52.068;4.414;2023-05-20T14:40:46;3.45;;;1.25;;
26965;SDS011;14522;52.068;4.414;2023-05-20T14:43:12;5.93;;;1.10;;
26965;SDS011;14522;52.068;4.414;2023-05-20T14:45:39;6.03;;;1.90;;
26965;SDS011;14522;52.068;4.414;2023-05-20T14:48:05;2.53;;;1.10;;
26965;SDS011;14522;52.068;4.414;2023-05-20T14:50:32;3.13;;;1.00;;
26965;SDS011;14522;52.068;4.414;2023-05-20T14:52:59;2.00;;;1.10;;
26965;SDS011;14522;52.068;4.414;2023-05-20T14:55:25;2.33;;;1.10;;
26965;SDS011;14522;52.068;4.414;2023-05-20T14:57:51;4.15;;;1.67;;
26965;SDS011;14522;52.068;4.414;2023-05-20T15:00:18;4.38;;;1.17;;